createdAt,value
2018-07-06T00:00:17.797Z,0.00
2018-07-06T00:01:17.784Z,0.00
2018-07-06T00:02:17.779Z,0.00
2018-07-06T00:03:17.826Z,0.00
2018-07-06T00:04:17.751Z,0.00
2018-07-06T00:05:17.738Z,0.00
2018-07-06T00:06:17.728Z,0.00
2018-07-06T00:07:17.717Z,0.00
2018-07-06T00:08:17.794Z,0.00
2018-07-06T00:09:17.699Z,0.00
2018-07-06T00:10:17.681Z,0.00
2018-07-06T00:11:17.673Z,0.00
2018-07-06T00:12:17.661Z,0.00
2018-07-06T00:13:17.658Z,0.00
2018-07-06T00:14:17.712Z,0.00
2018-07-06T00:15:17.634Z,0.00
2018-07-06T00:16:17.620Z,0.00
2018-07-06T00:17:17.611Z,0.00
2018-07-06T00:18:17.591Z,0.00
2018-07-06T00:19:17.653Z,0.00
2018-07-06T00:20:17.578Z,0.00
2018-07-06T00:21:17.557Z,0.00
2018-07-06T00:22:17.544Z,0.00
2018-07-06T00:23:17.536Z,0.00
2018-07-06T00:24:17.602Z,0.00
2018-07-06T00:25:17.518Z,0.00
2018-07-06T00:26:17.506Z,0.00
2018-07-06T00:27:17.497Z,0.00
2018-07-06T00:28:17.476Z,0.00
2018-07-06T00:29:17.528Z,0.00
2018-07-06T00:30:17.459Z,0.00
2018-07-06T00:31:17.443Z,0.00
2018-07-06T00:32:17.440Z,0.00
2018-07-06T00:33:17.418Z,0.00
2018-07-06T00:34:17.482Z,0.00
2018-07-06T00:35:17.397Z,0.00
2018-07-06T00:36:17.398Z,0.00
2018-07-06T00:37:17.377Z,0.00
2018-07-06T00:38:17.366Z,0.00
2018-07-06T00:39:17.421Z,0.00
2018-07-06T00:40:17.346Z,0.00
2018-07-06T00:41:17.330Z,0.00
2018-07-06T00:42:17.324Z,0.00
2018-07-06T00:43:17.320Z,0.00
2018-07-06T00:44:17.365Z,0.00
2018-07-06T00:45:17.283Z,0.00
2018-07-06T00:46:17.278Z,0.00
2018-07-06T00:47:17.271Z,0.00
2018-07-06T00:48:17.256Z,0.00
2018-07-06T00:49:17.306Z,0.00
2018-07-06T00:50:17.234Z,0.00
2018-07-06T00:51:17.222Z,0.00
2018-07-06T00:52:17.208Z,0.00
2018-07-06T00:53:17.197Z,0.00
2018-07-06T00:54:17.250Z,0.00
2018-07-06T00:55:17.177Z,0.00
2018-07-06T00:56:17.167Z,0.00
2018-07-06T00:57:17.151Z,0.00
2018-07-06T00:58:17.143Z,0.00
2018-07-06T00:59:17.203Z,0.00
2018-07-06T01:00:17.118Z,0.00
2018-07-06T01:01:17.110Z,0.00
2018-07-06T01:02:17.099Z,0.00
2018-07-06T01:03:17.084Z,0.00
2018-07-06T01:04:17.134Z,0.00
2018-07-06T01:05:17.064Z,0.00
2018-07-06T01:06:17.051Z,0.00
2018-07-06T01:07:17.038Z,0.00
2018-07-06T01:08:17.030Z,0.00
2018-07-06T01:09:17.083Z,0.00
2018-07-06T01:10:17.023Z,0.00
2018-07-06T01:11:16.991Z,0.00
2018-07-06T01:12:16.988Z,0.00
2018-07-06T01:13:16.976Z,0.00
2018-07-06T01:14:17.020Z,0.00
2018-07-06T01:15:16.959Z,0.00
2018-07-06T01:16:16.940Z,0.00
2018-07-06T01:17:16.926Z,0.00
2018-07-06T01:18:16.915Z,0.00
2018-07-06T01:19:16.972Z,0.00
2018-07-06T01:20:16.897Z,0.00
2018-07-06T01:21:16.883Z,0.00
2018-07-06T01:22:16.869Z,0.00
2018-07-06T01:23:16.859Z,0.00
2018-07-06T01:24:16.918Z,0.00
2018-07-06T01:25:16.842Z,0.00
2018-07-06T01:26:16.822Z,0.00
2018-07-06T01:27:16.823Z,0.00
2018-07-06T01:28:16.803Z,0.00
2018-07-06T01:29:16.859Z,0.00
2018-07-06T01:30:16.783Z,0.00
2018-07-06T01:31:16.769Z,0.00
2018-07-06T01:32:16.760Z,0.00
2018-07-06T01:33:16.749Z,0.00
2018-07-06T01:34:16.802Z,0.00
2018-07-06T01:35:16.729Z,0.00
2018-07-06T01:36:16.716Z,0.00
2018-07-06T01:37:16.700Z,0.00
2018-07-06T01:38:16.698Z,0.00
2018-07-06T01:39:16.748Z,0.00
2018-07-06T01:40:16.675Z,0.00
2018-07-06T01:41:16.665Z,0.00
2018-07-06T01:42:16.654Z,0.00
2018-07-06T01:43:16.643Z,0.00
2018-07-06T01:44:16.690Z,0.00
2018-07-06T01:45:16.614Z,0.00
2018-07-06T01:46:16.604Z,0.00
2018-07-06T01:47:16.595Z,0.00
2018-07-06T01:48:16.582Z,0.00
2018-07-06T01:49:16.635Z,0.00
2018-07-06T01:50:16.565Z,0.00
2018-07-06T01:51:16.545Z,0.00
2018-07-06T01:52:16.545Z,0.00
2018-07-06T01:53:16.528Z,0.00
2018-07-06T01:54:16.514Z,0.00
2018-07-06T01:55:16.563Z,0.00
2018-07-06T01:56:16.487Z,0.00
2018-07-06T01:57:16.486Z,0.00
2018-07-06T01:58:16.477Z,0.00
2018-07-06T01:59:16.462Z,0.00
2018-07-06T02:00:16.512Z,0.00
2018-07-06T02:01:16.448Z,0.00
2018-07-06T02:02:16.434Z,0.00
2018-07-06T02:03:16.416Z,0.00
2018-07-06T02:04:16.410Z,0.00
2018-07-06T02:05:16.454Z,0.00
2018-07-06T02:06:16.382Z,0.00
2018-07-06T02:07:16.375Z,0.00
2018-07-06T02:08:16.361Z,0.00
2018-07-06T02:09:16.355Z,0.00
2018-07-06T02:10:16.406Z,0.00
2018-07-06T02:11:16.328Z,0.00
2018-07-06T02:12:16.322Z,0.00
2018-07-06T02:13:16.310Z,0.00
2018-07-06T02:14:16.296Z,0.00
2018-07-06T02:15:16.358Z,0.00
2018-07-06T02:16:16.278Z,0.00
2018-07-06T02:17:16.263Z,0.00
2018-07-06T02:18:16.261Z,0.00
2018-07-06T02:19:16.245Z,0.00
2018-07-06T02:20:16.299Z,0.00
2018-07-06T02:21:16.226Z,0.00
2018-07-06T02:22:16.223Z,0.00
2018-07-06T02:23:16.197Z,0.00
2018-07-06T02:24:16.188Z,0.00
2018-07-06T02:25:16.248Z,0.00
2018-07-06T02:26:16.164Z,0.00
2018-07-06T02:27:16.161Z,0.00
2018-07-06T02:28:16.145Z,0.00
2018-07-06T02:29:16.129Z,0.00
2018-07-06T02:30:16.189Z,0.00
2018-07-06T02:31:16.110Z,0.00
2018-07-06T02:32:16.104Z,0.00
2018-07-06T02:33:16.088Z,0.00
2018-07-06T02:34:16.076Z,0.00
2018-07-06T02:35:16.144Z,0.00
2018-07-06T02:36:16.051Z,0.00
2018-07-06T02:37:16.047Z,0.00
2018-07-06T02:38:16.044Z,0.00
2018-07-06T02:39:16.012Z,0.00
2018-07-06T02:40:16.074Z,0.00
2018-07-06T02:41:16.007Z,0.00
2018-07-06T02:42:15.994Z,0.00
2018-07-06T02:43:15.979Z,0.00
2018-07-06T02:44:15.966Z,0.00
2018-07-06T02:45:16.017Z,0.00
2018-07-06T02:46:15.945Z,0.00
2018-07-06T02:47:15.933Z,0.00
2018-07-06T02:48:15.919Z,0.00
2018-07-06T02:49:15.927Z,0.00
2018-07-06T02:50:15.972Z,4.00
2018-07-06T02:51:15.894Z,4.00
2018-07-06T02:52:15.882Z,0.00
2018-07-06T02:53:15.876Z,0.00
2018-07-06T02:54:15.855Z,0.00
2018-07-06T02:55:15.986Z,4.00
2018-07-06T02:56:15.837Z,4.00
2018-07-06T02:57:15.825Z,0.00
2018-07-06T02:58:15.815Z,4.00
2018-07-06T02:59:15.828Z,4.00
2018-07-06T03:00:15.865Z,4.00
2018-07-06T03:01:15.780Z,4.00
2018-07-06T03:02:15.766Z,4.00
2018-07-06T03:03:15.763Z,8.00
2018-07-06T03:04:15.755Z,8.00
2018-07-06T03:05:15.797Z,8.00
2018-07-06T03:06:15.723Z,8.00
2018-07-06T03:07:15.713Z,12.00
2018-07-06T03:08:15.714Z,12.00
2018-07-06T03:09:15.682Z,12.00
2018-07-06T03:10:15.748Z,16.00
2018-07-06T03:11:15.676Z,12.00
2018-07-06T03:12:15.669Z,16.00
2018-07-06T03:13:15.652Z,20.00
2018-07-06T03:14:15.639Z,20.00
2018-07-06T03:15:15.680Z,24.00
2018-07-06T03:16:15.615Z,24.00
2018-07-06T03:17:15.602Z,24.00
2018-07-06T03:18:15.602Z,32.00
2018-07-06T03:19:15.599Z,32.00
2018-07-06T03:20:15.641Z,36.00
2018-07-06T03:21:15.563Z,40.00
2018-07-06T03:22:15.552Z,44.00
2018-07-06T03:23:15.543Z,52.00
2018-07-06T03:24:15.531Z,52.00
2018-07-06T03:25:15.579Z,56.00
2018-07-06T03:26:15.513Z,64.00
2018-07-06T03:27:15.495Z,68.00
2018-07-06T03:28:15.500Z,72.00
2018-07-06T03:29:15.473Z,80.00
2018-07-06T03:30:15.544Z,84.00
2018-07-06T03:31:15.452Z,92.00
2018-07-06T03:32:15.442Z,96.00
2018-07-06T03:33:15.434Z,104.00
2018-07-06T03:34:15.419Z,112.00
2018-07-06T03:35:15.487Z,120.00
2018-07-06T03:36:15.398Z,124.00
2018-07-06T03:37:15.391Z,132.00
2018-07-06T03:38:15.383Z,140.00
2018-07-06T03:39:15.369Z,148.00
2018-07-06T03:40:15.356Z,156.00
2018-07-06T03:41:15.401Z,164.00
2018-07-06T03:42:15.332Z,172.00
2018-07-06T03:43:15.314Z,180.00
2018-07-06T03:44:15.312Z,188.00
2018-07-06T03:45:15.291Z,196.00
2018-07-06T03:46:15.363Z,204.00
2018-07-06T03:47:15.279Z,212.00
2018-07-06T03:48:15.272Z,224.00
2018-07-06T03:49:15.263Z,232.00
2018-07-06T03:50:15.247Z,240.00
2018-07-06T03:51:15.304Z,248.00
2018-07-06T03:52:15.222Z,256.00
2018-07-06T03:53:15.216Z,268.00
2018-07-06T03:54:15.197Z,276.00
2018-07-06T03:55:15.191Z,284.00
2018-07-06T03:56:15.248Z,292.00
2018-07-06T03:57:15.166Z,304.00
2018-07-06T03:58:15.156Z,312.00
2018-07-06T03:59:15.144Z,320.00
2018-07-06T04:00:15.135Z,328.00
2018-07-06T04:01:15.196Z,344.00
2018-07-06T04:02:15.116Z,348.00
2018-07-06T04:03:15.101Z,356.00
2018-07-06T04:04:15.087Z,368.00
2018-07-06T04:05:15.076Z,376.00
2018-07-06T04:06:15.149Z,384.00
2018-07-06T04:07:15.055Z,392.00
2018-07-06T04:08:15.048Z,400.00
2018-07-06T04:09:15.055Z,408.00
2018-07-06T04:10:15.023Z,420.00
2018-07-06T04:11:15.073Z,424.00
2018-07-06T04:12:15.007Z,432.00
2018-07-06T04:13:15.120Z,436.00
2018-07-06T04:14:14.983Z,448.00
2018-07-06T04:15:14.976Z,456.00
2018-07-06T04:16:15.029Z,464.00
2018-07-06T04:17:14.946Z,472.00
2018-07-06T04:18:14.936Z,472.00
2018-07-06T04:19:14.925Z,480.00
2018-07-06T04:20:14.915Z,496.00
2018-07-06T04:21:14.971Z,508.00
2018-07-06T04:22:14.893Z,516.00
2018-07-06T04:23:14.884Z,520.00
2018-07-06T04:24:14.877Z,532.00
2018-07-06T04:25:14.860Z,540.00
2018-07-06T04:26:14.920Z,544.00
2018-07-06T04:27:14.836Z,552.00
2018-07-06T04:28:14.828Z,556.00
2018-07-06T04:29:14.822Z,564.00
2018-07-06T04:30:14.816Z,576.00
2018-07-06T04:31:14.859Z,580.00
2018-07-06T04:32:14.787Z,588.00
2018-07-06T04:33:14.773Z,596.00
2018-07-06T04:34:14.764Z,600.00
2018-07-06T04:35:14.750Z,608.00
2018-07-06T04:36:14.801Z,612.00
2018-07-06T04:37:14.736Z,624.00
2018-07-06T04:38:14.714Z,628.00
2018-07-06T04:39:14.705Z,636.00
2018-07-06T04:40:14.696Z,644.00
2018-07-06T04:41:14.740Z,648.00
2018-07-06T04:42:14.666Z,656.00
2018-07-06T04:43:14.665Z,660.00
2018-07-06T04:44:14.696Z,668.00
2018-07-06T04:45:14.640Z,676.00
2018-07-06T04:46:14.696Z,684.00
2018-07-06T04:47:14.626Z,688.00
2018-07-06T04:48:14.608Z,688.00
2018-07-06T04:49:14.600Z,692.00
2018-07-06T04:50:14.585Z,700.00
2018-07-06T04:51:14.655Z,704.00
2018-07-06T04:52:14.567Z,712.00
2018-07-06T04:53:14.557Z,716.00
2018-07-06T04:54:14.540Z,720.00
2018-07-06T04:55:14.532Z,724.00
2018-07-06T04:56:14.585Z,728.00
2018-07-06T04:57:14.510Z,732.00
2018-07-06T04:58:14.502Z,740.00
2018-07-06T04:59:14.538Z,744.00
2018-07-06T05:00:14.483Z,748.00
2018-07-06T05:01:14.526Z,748.00
2018-07-06T05:02:14.451Z,756.00
2018-07-06T05:03:14.443Z,760.00
2018-07-06T05:04:14.445Z,764.00
2018-07-06T05:05:14.424Z,772.00
2018-07-06T05:06:14.488Z,776.00
2018-07-06T05:07:14.396Z,780.00
2018-07-06T05:08:14.388Z,784.00
2018-07-06T05:09:14.378Z,788.00
2018-07-06T05:10:14.374Z,788.00
2018-07-06T05:11:14.429Z,788.00
2018-07-06T05:12:14.351Z,796.00
2018-07-06T05:13:14.332Z,800.00
2018-07-06T05:14:14.322Z,808.00
2018-07-06T05:15:14.312Z,812.00
2018-07-06T05:16:14.372Z,816.00
2018-07-06T05:17:14.292Z,828.00
2018-07-06T05:18:14.278Z,836.00
2018-07-06T05:19:14.273Z,848.00
2018-07-06T05:20:14.266Z,856.00
2018-07-06T05:21:14.249Z,864.00
2018-07-06T05:22:14.311Z,876.00
2018-07-06T05:23:14.233Z,880.00
2018-07-06T05:24:14.210Z,880.00
2018-07-06T05:25:14.206Z,884.00
2018-07-06T05:26:14.190Z,884.00
2018-07-06T05:27:14.262Z,880.00
2018-07-06T05:28:14.171Z,888.00
2018-07-06T05:29:14.163Z,880.00
2018-07-06T05:30:14.149Z,888.00
2018-07-06T05:31:14.135Z,896.00
2018-07-06T05:32:14.192Z,904.00
2018-07-06T05:33:14.123Z,912.00
2018-07-06T05:34:14.105Z,916.00
2018-07-06T05:35:14.092Z,916.00
2018-07-06T05:36:14.089Z,920.00
2018-07-06T05:37:14.135Z,920.00
2018-07-06T05:38:14.061Z,920.00
2018-07-06T05:39:14.053Z,924.00
2018-07-06T05:40:14.045Z,928.00
2018-07-06T05:41:14.025Z,924.00
2018-07-06T05:42:14.086Z,932.00
2018-07-06T05:43:14.006Z,936.00
2018-07-06T05:44:13.998Z,940.00
2018-07-06T05:45:13.992Z,944.00
2018-07-06T05:46:13.983Z,948.00
2018-07-06T05:47:14.036Z,956.00
2018-07-06T05:48:13.945Z,964.00
2018-07-06T05:49:13.939Z,972.00
2018-07-06T05:50:13.933Z,980.00
2018-07-06T05:51:13.912Z,984.00
2018-07-06T05:52:13.967Z,992.00
2018-07-06T05:53:13.899Z,996.00
2018-07-06T05:54:13.879Z,1004.00
2018-07-06T05:55:13.868Z,1012.00
2018-07-06T05:56:13.862Z,1012.00
2018-07-06T05:57:13.939Z,1020.00
2018-07-06T05:58:13.838Z,1040.00
2018-07-06T05:59:13.882Z,1052.00
2018-07-06T06:00:13.819Z,1068.00
2018-07-06T06:01:13.811Z,1052.00
2018-07-06T06:02:13.877Z,1052.00
2018-07-06T06:03:13.785Z,1080.00
2018-07-06T06:04:13.770Z,1056.00
2018-07-06T06:05:13.759Z,1128.00
2018-07-06T06:06:13.750Z,1236.00
2018-07-06T06:07:13.809Z,1148.00
2018-07-06T06:08:13.729Z,1068.00
2018-07-06T06:09:13.715Z,1068.00
2018-07-06T06:10:13.707Z,1124.00
2018-07-06T06:11:13.695Z,1140.00
2018-07-06T06:12:13.774Z,1144.00
2018-07-06T06:13:13.674Z,1120.00
2018-07-06T06:14:13.670Z,1152.00
2018-07-06T06:15:13.658Z,1216.00
2018-07-06T06:16:13.638Z,1264.00
2018-07-06T06:17:13.693Z,1416.00
2018-07-06T06:18:13.616Z,1248.00
2018-07-06T06:19:13.605Z,1200.00
2018-07-06T06:20:13.589Z,1260.00
2018-07-06T06:21:13.570Z,1280.00
2018-07-06T06:22:13.649Z,1316.00
2018-07-06T06:23:13.564Z,1360.00
2018-07-06T06:24:13.552Z,1436.00
2018-07-06T06:25:13.536Z,1572.00
2018-07-06T06:26:13.533Z,1712.00
2018-07-06T06:27:13.591Z,1812.00
2018-07-06T06:28:13.499Z,2032.00
2018-07-06T06:29:13.493Z,2048.00
2018-07-06T06:30:13.483Z,2148.00
2018-07-06T06:31:13.468Z,2132.00
2018-07-06T06:32:13.526Z,2172.00
2018-07-06T06:33:13.506Z,2100.00
2018-07-06T06:34:13.444Z,2152.00
2018-07-06T06:35:13.430Z,2204.00
2018-07-06T06:36:13.413Z,2184.00
2018-07-06T06:37:13.484Z,2220.00
2018-07-06T06:38:13.392Z,2256.00
2018-07-06T06:39:13.381Z,2280.00
2018-07-06T06:40:13.371Z,2212.00
2018-07-06T06:41:13.369Z,2140.00
2018-07-06T06:42:13.415Z,2156.00
2018-07-06T06:43:13.341Z,2148.00
2018-07-06T06:44:13.329Z,2104.00
2018-07-06T06:45:13.322Z,2100.00
2018-07-06T06:46:13.301Z,2144.00
2018-07-06T06:47:13.376Z,2228.00
2018-07-06T06:48:13.294Z,2128.00
2018-07-06T06:49:13.280Z,2076.00
2018-07-06T06:50:13.268Z,2000.00
2018-07-06T06:51:13.252Z,2096.00
2018-07-06T06:52:13.325Z,2128.00
2018-07-06T06:53:13.233Z,2136.00
2018-07-06T06:54:13.221Z,2000.00
2018-07-06T06:55:13.214Z,1988.00
2018-07-06T06:56:13.200Z,2112.00
2018-07-06T06:57:13.260Z,2152.00
2018-07-06T06:58:13.179Z,1932.00
2018-07-06T06:59:13.173Z,1908.00
2018-07-06T07:00:13.168Z,1876.00
2018-07-06T07:01:13.151Z,2052.00
2018-07-06T07:02:13.222Z,2052.00
2018-07-06T07:03:13.123Z,2124.00
2018-07-06T07:04:13.111Z,2212.00
2018-07-06T07:05:13.097Z,2092.00
2018-07-06T07:06:13.094Z,2064.00
2018-07-06T07:07:13.078Z,2124.00
2018-07-06T07:08:13.132Z,2264.00
2018-07-06T07:09:13.053Z,2264.00
2018-07-06T07:10:13.055Z,2148.00
2018-07-06T07:11:13.035Z,2336.00
2018-07-06T07:12:13.023Z,2488.00
2018-07-06T07:13:13.079Z,2516.00
2018-07-06T07:14:13.086Z,2584.00
2018-07-06T07:15:13.124Z,2472.00
2018-07-06T07:16:12.989Z,2332.00
2018-07-06T07:17:12.972Z,2236.00
2018-07-06T07:18:13.030Z,2172.00
2018-07-06T07:19:12.947Z,2192.00
2018-07-06T07:20:12.937Z,2240.00
2018-07-06T07:21:12.923Z,2408.00
2018-07-06T07:22:12.915Z,2296.00
2018-07-06T07:23:12.966Z,2192.00
2018-07-06T07:24:12.897Z,2172.00
2018-07-06T07:25:13.076Z,2188.00
2018-07-06T07:26:12.872Z,2216.00
2018-07-06T07:27:12.866Z,2308.00
2018-07-06T07:28:13.076Z,2388.00
2018-07-06T07:29:12.931Z,2504.00
2018-07-06T07:30:12.913Z,2740.00
2018-07-06T07:31:12.830Z,2800.00
2018-07-06T07:32:12.913Z,2564.00
2018-07-06T07:33:13.001Z,2456.00
2018-07-06T07:34:12.889Z,2608.00
2018-07-06T07:35:12.976Z,2716.00
2018-07-06T07:36:12.855Z,2892.00
2018-07-06T07:37:12.853Z,2940.00
2018-07-06T07:38:12.949Z,3004.00
2018-07-06T07:39:12.806Z,3136.00
2018-07-06T07:40:12.803Z,3224.00
2018-07-06T07:41:12.815Z,3128.00
2018-07-06T07:42:12.816Z,3084.00
2018-07-06T07:43:12.910Z,2996.00
2018-07-06T07:44:12.764Z,3104.00
2018-07-06T07:45:12.736Z,3120.00
2018-07-06T07:46:12.749Z,2952.00
2018-07-06T07:47:12.733Z,3012.00
2018-07-06T07:48:12.858Z,3024.00
2018-07-06T07:49:12.696Z,3024.00
2018-07-06T07:50:12.606Z,3144.00
2018-07-06T07:51:12.596Z,3032.00
2018-07-06T07:52:12.592Z,3064.00
2018-07-06T07:53:12.766Z,3088.00
2018-07-06T07:54:12.675Z,2944.00
2018-07-06T07:55:12.572Z,2684.00
2018-07-06T07:56:12.539Z,2580.00
2018-07-06T07:57:12.530Z,2468.00
2018-07-06T07:58:12.591Z,2668.00
2018-07-06T07:59:12.503Z,3012.00
2018-07-06T08:00:12.497Z,3152.00
2018-07-06T08:01:12.669Z,2976.00
2018-07-06T08:02:12.475Z,2692.00
2018-07-06T08:03:12.528Z,2868.00
2018-07-06T08:04:12.456Z,3260.00
2018-07-06T08:05:12.448Z,3328.00
2018-07-06T08:06:12.453Z,3256.00
2018-07-06T08:07:12.433Z,3136.00
2018-07-06T08:08:12.590Z,3024.00
2018-07-06T08:09:12.400Z,2980.00
2018-07-06T08:10:12.391Z,3100.00
2018-07-06T08:11:12.377Z,3256.00
2018-07-06T08:12:12.367Z,3440.00
2018-07-06T08:13:12.418Z,3596.00
2018-07-06T08:14:12.347Z,3764.00
2018-07-06T08:15:12.336Z,3692.00
2018-07-06T08:16:12.315Z,3460.00
2018-07-06T08:17:12.308Z,3452.00
2018-07-06T08:18:12.367Z,3600.00
2018-07-06T08:19:12.287Z,3636.00
2018-07-06T08:20:12.270Z,3532.00
2018-07-06T08:21:12.264Z,3356.00
2018-07-06T08:22:12.251Z,3224.00
2018-07-06T08:23:12.314Z,3108.00
2018-07-06T08:24:12.238Z,3340.00
2018-07-06T08:25:12.232Z,3472.00
2018-07-06T08:26:12.207Z,3560.00
2018-07-06T08:27:12.181Z,3244.00
2018-07-06T08:28:12.261Z,3152.00
2018-07-06T08:29:12.173Z,3164.00
2018-07-06T08:30:12.189Z,3376.00
2018-07-06T08:31:12.149Z,3608.00
2018-07-06T08:32:12.139Z,3632.00
2018-07-06T08:33:12.196Z,3604.00
2018-07-06T08:34:12.122Z,3808.00
2018-07-06T08:35:12.120Z,4012.00
2018-07-06T08:36:12.106Z,4184.00
2018-07-06T08:37:12.089Z,4164.00
2018-07-06T08:38:12.179Z,3824.00
2018-07-06T08:39:12.058Z,3540.00
2018-07-06T08:40:12.054Z,3536.00
2018-07-06T08:41:12.035Z,3268.00
2018-07-06T08:42:12.030Z,3204.00
2018-07-06T08:43:12.081Z,3468.00
2018-07-06T08:44:11.997Z,3744.00
2018-07-06T08:45:11.998Z,3892.00
2018-07-06T08:46:11.989Z,4004.00
2018-07-06T08:47:11.975Z,3980.00
2018-07-06T08:48:11.959Z,4012.00
2018-07-06T08:49:12.031Z,4192.00
2018-07-06T08:50:11.991Z,4120.00
2018-07-06T08:51:11.938Z,3992.00
2018-07-06T08:52:11.935Z,3772.00
2018-07-06T08:53:11.935Z,3704.00
2018-07-06T08:54:12.012Z,3660.00
2018-07-06T08:55:11.872Z,3796.00
2018-07-06T08:56:11.877Z,4088.00
2018-07-06T08:57:11.878Z,3780.00
2018-07-06T08:58:11.969Z,3848.00
2018-07-06T08:59:11.926Z,4140.00
2018-07-06T09:00:11.837Z,4224.00
2018-07-06T09:01:11.882Z,4188.00
2018-07-06T09:02:11.825Z,4188.00
2018-07-06T09:03:11.819Z,4288.00
2018-07-06T09:04:11.917Z,4448.00
2018-07-06T09:05:11.790Z,4200.00
2018-07-06T09:06:11.770Z,4272.00
2018-07-06T09:07:11.780Z,4492.00
2018-07-06T09:08:11.761Z,4560.00
2018-07-06T09:09:11.840Z,4456.00
2018-07-06T09:10:11.722Z,4372.00
2018-07-06T09:11:11.715Z,4336.00
2018-07-06T09:12:11.688Z,4340.00
2018-07-06T09:13:11.693Z,4284.00
2018-07-06T09:14:11.749Z,4224.00
2018-07-06T09:15:11.669Z,4256.00
2018-07-06T09:16:11.701Z,4276.00
2018-07-06T09:17:11.649Z,4228.00
2018-07-06T09:18:11.633Z,4124.00
2018-07-06T09:19:11.729Z,4332.00
2018-07-06T09:20:11.808Z,4588.00
2018-07-06T09:21:11.604Z,4348.00
2018-07-06T09:22:11.586Z,4184.00
2018-07-06T09:23:11.578Z,4272.00
2018-07-06T09:24:11.682Z,4224.00
2018-07-06T09:25:11.549Z,4276.00
2018-07-06T09:26:11.857Z,4644.00
2018-07-06T09:27:11.529Z,4668.00
2018-07-06T09:28:11.512Z,4532.00
2018-07-06T09:29:11.567Z,4420.00
2018-07-06T09:30:11.499Z,4336.00
2018-07-06T09:31:11.482Z,4080.00
2018-07-06T09:32:11.469Z,4084.00
2018-07-06T09:33:11.461Z,4292.00
2018-07-06T09:34:11.506Z,4504.00
2018-07-06T09:35:11.441Z,4324.00
2018-07-06T09:36:11.429Z,4236.00
2018-07-06T09:37:11.420Z,4284.00
2018-07-06T09:38:11.406Z,4468.00
2018-07-06T09:39:11.474Z,4804.00
2018-07-06T09:40:11.380Z,5108.00
2018-07-06T09:41:11.384Z,5272.00
2018-07-06T09:42:11.361Z,4984.00
2018-07-06T09:43:11.351Z,5108.00
2018-07-06T09:44:11.411Z,4844.00
2018-07-06T09:45:11.328Z,4620.00
2018-07-06T09:46:11.325Z,4672.00
2018-07-06T09:47:11.310Z,4580.00
2018-07-06T09:48:11.304Z,4452.00
2018-07-06T09:49:11.381Z,4564.00
2018-07-06T09:50:11.273Z,4472.00
2018-07-06T09:51:11.272Z,4424.00
2018-07-06T09:52:11.255Z,4660.00
2018-07-06T09:53:11.245Z,4600.00
2018-07-06T09:54:11.300Z,4344.00
2018-07-06T09:55:11.229Z,3792.00
2018-07-06T09:56:11.219Z,3592.00
2018-07-06T09:57:11.198Z,3308.00
2018-07-06T09:58:11.181Z,3576.00
2018-07-06T09:59:11.258Z,4152.00
2018-07-06T10:00:11.167Z,4652.00
2018-07-06T10:01:11.162Z,5100.00
2018-07-06T10:02:11.139Z,5388.00
2018-07-06T10:03:11.133Z,5396.00
2018-07-06T10:04:11.205Z,5256.00
2018-07-06T10:05:11.112Z,4924.00
2018-07-06T10:06:11.102Z,4556.00
2018-07-06T10:07:11.084Z,4096.00
2018-07-06T10:08:11.071Z,3824.00
2018-07-06T10:09:11.152Z,3800.00
2018-07-06T10:10:11.095Z,3676.00
2018-07-06T10:11:11.049Z,3508.00
2018-07-06T10:12:11.048Z,3444.00
2018-07-06T10:13:11.025Z,3588.00
2018-07-06T10:14:11.080Z,3780.00
2018-07-06T10:15:11.013Z,3884.00
2018-07-06T10:16:10.998Z,3924.00
2018-07-06T10:17:10.976Z,3900.00
2018-07-06T10:18:10.972Z,3896.00
2018-07-06T10:19:11.026Z,4068.00
2018-07-06T10:20:10.945Z,4020.00
2018-07-06T10:21:10.935Z,4292.00
2018-07-06T10:22:10.929Z,4284.00
2018-07-06T10:23:10.923Z,4328.00
2018-07-06T10:24:10.990Z,4464.00
2018-07-06T10:25:10.884Z,4512.00
2018-07-06T10:26:10.884Z,4336.00
2018-07-06T10:27:10.869Z,4044.00
2018-07-06T10:28:10.861Z,3916.00
2018-07-06T10:29:10.955Z,4096.00
2018-07-06T10:30:10.980Z,4188.00
2018-07-06T10:31:10.831Z,4232.00
2018-07-06T10:32:10.813Z,4224.00
2018-07-06T10:33:10.855Z,4016.00
2018-07-06T10:34:10.820Z,4032.00
2018-07-06T10:35:10.848Z,3568.00
2018-07-06T10:36:10.784Z,3412.00
2018-07-06T10:37:10.783Z,3436.00
2018-07-06T10:38:10.749Z,3112.00
2018-07-06T10:39:10.745Z,2804.00
2018-07-06T10:40:11.912Z,3524.00
2018-07-06T10:41:10.721Z,3776.00
2018-07-06T10:42:10.700Z,3788.00
2018-07-06T10:43:10.720Z,3872.00
2018-07-06T10:44:10.693Z,3980.00
2018-07-06T10:45:10.752Z,3976.00
2018-07-06T10:46:10.666Z,3592.00
2018-07-06T10:47:10.650Z,3720.00
2018-07-06T10:48:10.637Z,3576.00
2018-07-06T10:49:10.627Z,3552.00
2018-07-06T10:50:10.695Z,2856.00
2018-07-06T10:51:10.608Z,2816.00
2018-07-06T10:52:10.630Z,6064.00
2018-07-06T10:53:10.618Z,16864.00
2018-07-06T10:54:10.573Z,12924.00
2018-07-06T10:55:10.702Z,6740.00
2018-07-06T10:56:10.570Z,4396.00
2018-07-06T10:57:10.545Z,3932.00
2018-07-06T10:58:10.531Z,2812.00
2018-07-06T10:59:10.514Z,3372.00
2018-07-06T11:00:10.661Z,3476.00
2018-07-06T11:01:10.496Z,3448.00
2018-07-06T11:02:10.491Z,3664.00
2018-07-06T11:03:10.480Z,3792.00
2018-07-06T11:04:10.785Z,3360.00
2018-07-06T11:05:10.630Z,3432.00
2018-07-06T11:06:10.447Z,3576.00
2018-07-06T11:07:10.437Z,3524.00
2018-07-06T11:08:10.439Z,3408.00
2018-07-06T11:09:10.412Z,3428.00
2018-07-06T11:10:10.454Z,3496.00
2018-07-06T11:11:10.399Z,3676.00
2018-07-06T11:12:10.376Z,3812.00
2018-07-06T11:13:10.364Z,3876.00
2018-07-06T11:14:10.373Z,3728.00
2018-07-06T11:15:10.417Z,3600.00
2018-07-06T11:16:10.339Z,3568.00
2018-07-06T11:17:10.323Z,3480.00
2018-07-06T11:18:10.313Z,3536.00
2018-07-06T11:19:10.370Z,3604.00
2018-07-06T11:20:10.411Z,3536.00
2018-07-06T11:21:10.331Z,3528.00
2018-07-06T11:22:10.281Z,3492.00
2018-07-06T11:23:10.263Z,3488.00
2018-07-06T11:24:10.252Z,3548.00
2018-07-06T11:25:10.587Z,3612.00
2018-07-06T11:26:10.226Z,3648.00
2018-07-06T11:27:10.211Z,3732.00
2018-07-06T11:28:10.210Z,3724.00
2018-07-06T11:29:10.197Z,3756.00
2018-07-06T11:30:10.276Z,3804.00
2018-07-06T11:31:10.173Z,3736.00
2018-07-06T11:32:10.232Z,3652.00
2018-07-06T11:33:10.155Z,3740.00
2018-07-06T11:34:10.159Z,3840.00
2018-07-06T11:35:10.203Z,3852.00
2018-07-06T11:36:10.121Z,3928.00
2018-07-06T11:37:10.127Z,3892.00
2018-07-06T11:38:10.313Z,3848.00
2018-07-06T11:39:10.089Z,3936.00
2018-07-06T11:40:10.136Z,4032.00
2018-07-06T11:41:10.065Z,4100.00
2018-07-06T11:42:10.058Z,4240.00
2018-07-06T11:43:10.038Z,4040.00
2018-07-06T11:44:10.034Z,4008.00
2018-07-06T11:45:10.102Z,4204.00
2018-07-06T11:46:10.012Z,4348.00
2018-07-06T11:47:10.001Z,4428.00
2018-07-06T11:48:09.987Z,4516.00
2018-07-06T11:49:09.973Z,4664.00
2018-07-06T11:50:10.063Z,4664.00
2018-07-06T11:51:09.968Z,4668.00
2018-07-06T11:52:09.939Z,4956.00
2018-07-06T11:53:09.932Z,5128.00
2018-07-06T11:54:09.920Z,5392.00
2018-07-06T11:55:10.001Z,5832.00
2018-07-06T11:56:09.925Z,5580.00
2018-07-06T11:57:09.889Z,4348.00
2018-07-06T11:58:09.922Z,4408.00
2018-07-06T11:59:09.862Z,5356.00
2018-07-06T12:00:09.948Z,5396.00
2018-07-06T12:01:09.887Z,5664.00
2018-07-06T12:02:09.838Z,6036.00
2018-07-06T12:03:09.834Z,5856.00
2018-07-06T12:04:09.839Z,5692.00
2018-07-06T12:05:09.912Z,4884.00
2018-07-06T12:06:09.793Z,5048.00
2018-07-06T12:07:09.766Z,5160.00
2018-07-06T12:08:09.758Z,5200.00
2018-07-06T12:09:09.743Z,5332.00
2018-07-06T12:10:10.641Z,5488.00
2018-07-06T12:14:49.314Z,6940.00
2018-07-06T12:15:49.509Z,6484.00
2018-07-06T12:16:49.283Z,6428.00
2018-07-06T12:20:18.980Z,5068.00
2018-07-06T12:21:21.740Z,6160.00
2018-07-06T12:22:18.997Z,6620.00
2018-07-06T12:23:20.609Z,6272.00
2018-07-06T12:27:10.761Z,5936.00
2018-07-06T12:33:09.871Z,7288.00
2018-07-06T13:01:54.242Z,10004.00
2018-07-06T13:02:54.468Z,6796.00
